sensor_id;sensor_type;location;lat;lon;timestamp;temperature;humidity
25963;DHT22;13760;52.588;13.406;2022-07-18T00:02:21;16.60;99.90
25963;DHT22;13760;52.588;13.406;2022-07-18T00:04:46;16.60;99.90
25963;DHT22;13760;52.588;13.406;2022-07-18T00:07:13;16.60;99.90
25963;DHT22;13760;52.588;13.406;2022-07-18T00:09:40;16.60;99.90
25963;DHT22;13760;52.588;13.406;2022-07-18T00:12:07;16.60;99.90
25963;DHT22;13760;52.588;13.406;2022-07-18T00:14:33;16.60;99.90
25963;DHT22;13760;52.588;13.406;2022-07-18T00:16:59;16.60;99.90
25963;DHT22;13760;52.588;13.406;2022-07-18T00:19:26;16.60;99.90
25963;DHT22;13760;52.588;13.406;2022-07-18T00:21:51;16.60;99.90
25963;DHT22;13760;52.588;13.406;2022-07-18T00:24:17;16.60;99.90
25963;DHT22;13760;52.588;13.406;2022-07-18T00:26:43;16.60;99.90
25963;DHT22;13760;52.588;13.406;2022-07-18T00:29:08;16.70;99.90
25963;DHT22;13760;52.588;13.406;2022-07-18T00:31:35;16.70;99.90
25963;DHT22;13760;52.588;13.406;2022-07-18T00:34:01;16.60;99.90
25963;DHT22;13760;52.588;13.406;2022-07-18T00:36:27;16.60;99.90
25963;DHT22;13760;52.588;13.406;2022-07-18T00:38:53;16.60;99.90
25963;DHT22;13760;52.588;13.406;2022-07-18T00:41:19;16.60;99.90
25963;DHT22;13760;52.588;13.406;2022-07-18T00:43:44;16.60;99.90
25963;DHT22;13760;52.588;13.406;2022-07-18T00:46:10;16.60;99.90
25963;DHT22;13760;52.588;13.406;2022-07-18T00:48:42;16.70;99.90
25963;DHT22;13760;52.588;13.406;2022-07-18T00:51:08;16.70;99.90
25963;DHT22;13760;52.588;13.406;2022-07-18T00:53:34;16.70;99.90
25963;DHT22;13760;52.588;13.406;2022-07-18T00:56:02;16.60;99.90
25963;DHT22;13760;52.588;13.406;2022-07-18T00:58:28;16.60;99.90
25963;DHT22;13760;52.588;13.406;2022-07-18T01:00:54;16.60;99.90
25963;DHT22;13760;52.588;13.406;2022-07-18T01:03:38;16.70;99.90
25963;DHT22;13760;52.588;13.406;2022-07-18T01:06:04;16.60;99.90
25963;DHT22;13760;52.588;13.406;2022-07-18T01:08:30;16.60;99.90
25963;DHT22;13760;52.588;13.406;2022-07-18T01:10:56;16.70;99.90
25963;DHT22;13760;52.588;13.406;2022-07-18T01:13:22;16.60;99.90
25963;DHT22;13760;52.588;13.406;2022-07-18T01:15:48;16.60;99.90
25963;DHT22;13760;52.588;13.406;2022-07-18T01:18:13;16.60;99.90
25963;DHT22;13760;52.588;13.406;2022-07-18T01:20:39;16.60;99.90
25963;DHT22;13760;52.588;13.406;2022-07-18T01:23:05;16.60;99.90
25963;DHT22;13760;52.588;13.406;2022-07-18T01:25:30;16.50;99.90
25963;DHT22;13760;52.588;13.406;2022-07-18T01:27:56;16.50;99.90
25963;DHT22;13760;52.588;13.406;2022-07-18T01:30:25;16.50;99.90
25963;DHT22;13760;52.588;13.406;2022-07-18T01:33:00;16.50;99.90
25963;DHT22;13760;52.588;13.406;2022-07-18T01:35:27;16.40;99.90
25963;DHT22;13760;52.588;13.406;2022-07-18T01:37:55;16.40;99.90
25963;DHT22;13760;52.588;13.406;2022-07-18T01:40:22;16.40;99.90
25963;DHT22;13760;52.588;13.406;2022-07-18T01:42:48;16.40;99.90
25963;DHT22;13760;52.588;13.406;2022-07-18T01:45:14;16.30;99.90
25963;DHT22;13760;52.588;13.406;2022-07-18T01:47:41;16.30;99.90
25963;DHT22;13760;52.588;13.406;2022-07-18T01:50:08;16.20;99.90
25963;DHT22;13760;52.588;13.406;2022-07-18T01:52:34;16.10;99.90
25963;DHT22;13760;52.588;13.406;2022-07-18T01:55:00;16.00;99.90
25963;DHT22;13760;52.588;13.406;2022-07-18T01:57:26;15.90;99.90
25963;DHT22;13760;52.588;13.406;2022-07-18T01:59:52;15.80;99.90
25963;DHT22;13760;52.588;13.406;2022-07-18T02:02:17;15.80;99.90
25963;DHT22;13760;52.588;13.406;2022-07-18T02:04:43;15.70;99.90
25963;DHT22;13760;52.588;13.406;2022-07-18T02:07:32;15.70;99.90
25963;DHT22;13760;52.588;13.406;2022-07-18T02:09:58;15.60;99.90
25963;DHT22;13760;52.588;13.406;2022-07-18T02:12:25;15.60;99.90
25963;DHT22;13760;52.588;13.406;2022-07-18T02:14:51;15.50;99.90
25963;DHT22;13760;52.588;13.406;2022-07-18T02:17:17;15.50;99.90
25963;DHT22;13760;52.588;13.406;2022-07-18T02:19:44;15.40;99.90
25963;DHT22;13760;52.588;13.406;2022-07-18T02:22:10;15.40;99.90
25963;DHT22;13760;52.588;13.406;2022-07-18T02:24:36;15.30;99.90
25963;DHT22;13760;52.588;13.406;2022-07-18T02:27:02;15.20;99.90
25963;DHT22;13760;52.588;13.406;2022-07-18T02:29:28;15.20;99.90
25963;DHT22;13760;52.588;13.406;2022-07-18T02:31:53;15.10;99.90
25963;DHT22;13760;52.588;13.406;2022-07-18T02:34:19;15.00;99.90
25963;DHT22;13760;52.588;13.406;2022-07-18T02:36:45;15.00;99.90
25963;DHT22;13760;52.588;13.406;2022-07-18T02:39:10;15.00;99.90
25963;DHT22;13760;52.588;13.406;2022-07-18T02:41:36;14.90;99.90
25963;DHT22;13760;52.588;13.406;2022-07-18T02:44:03;14.80;99.90
25963;DHT22;13760;52.588;13.406;2022-07-18T02:46:29;14.80;99.90
25963;DHT22;13760;52.588;13.406;2022-07-18T02:48:55;14.80;99.90
25963;DHT22;13760;52.588;13.406;2022-07-18T02:51:20;14.80;99.90
25963;DHT22;13760;52.588;13.406;2022-07-18T02:53:48;14.80;99.90
25963;DHT22;13760;52.588;13.406;2022-07-18T02:56:14;14.70;99.90
25963;DHT22;13760;52.588;13.406;2022-07-18T02:58:39;14.70;99.90
25963;DHT22;13760;52.588;13.406;2022-07-18T03:01:05;14.60;99.90
25963;DHT22;13760;52.588;13.406;2022-07-18T03:03:31;14.50;99.90
25963;DHT22;13760;52.588;13.406;2022-07-18T03:05:57;14.50;99.90
25963;DHT22;13760;52.588;13.406;2022-07-18T03:08:22;14.50;99.90
25963;DHT22;13760;52.588;13.406;2022-07-18T03:10:48;14.40;99.90
25963;DHT22;13760;52.588;13.406;2022-07-18T03:13:14;14.30;99.90
25963;DHT22;13760;52.588;13.406;2022-07-18T03:15:40;14.30;99.90
25963;DHT22;13760;52.588;13.406;2022-07-18T03:18:06;14.30;99.90
25963;DHT22;13760;52.588;13.406;2022-07-18T03:20:32;14.20;99.90
25963;DHT22;13760;52.588;13.406;2022-07-18T03:23:04;14.20;99.90
25963;DHT22;13760;52.588;13.406;2022-07-18T03:25:31;14.20;99.90
25963;DHT22;13760;52.588;13.406;2022-07-18T03:27:57;14.20;99.90
25963;DHT22;13760;52.588;13.406;2022-07-18T03:30:23;14.10;99.90
25963;DHT22;13760;52.588;13.406;2022-07-18T03:32:49;14.20;99.90
25963;DHT22;13760;52.588;13.406;2022-07-18T03:35:15;14.20;99.90
25963;DHT22;13760;52.588;13.406;2022-07-18T03:37:41;14.10;99.90
25963;DHT22;13760;52.588;13.406;2022-07-18T03:40:10;14.20;99.90
25963;DHT22;13760;52.588;13.406;2022-07-18T03:42:37;14.20;99.90
25963;DHT22;13760;52.588;13.406;2022-07-18T03:45:05;14.20;99.90
25963;DHT22;13760;52.588;13.406;2022-07-18T03:47:31;14.20;99.90
25963;DHT22;13760;52.588;13.406;2022-07-18T03:49:59;14.20;99.90
25963;DHT22;13760;52.588;13.406;2022-07-18T03:52:28;14.20;99.90
25963;DHT22;13760;52.588;13.406;2022-07-18T03:54:53;14.10;99.90
25963;DHT22;13760;52.588;13.406;2022-07-18T03:57:35;14.20;99.90
25963;DHT22;13760;52.588;13.406;2022-07-18T04:00:06;14.20;99.90
25963;DHT22;13760;52.588;13.406;2022-07-18T04:02:38;14.20;99.90
25963;DHT22;13760;52.588;13.406;2022-07-18T04:05:04;14.20;99.90
25963;DHT22;13760;52.588;13.406;2022-07-18T04:07:30;14.20;99.90
25963;DHT22;13760;52.588;13.406;2022-07-18T04:09:59;14.30;99.90
25963;DHT22;13760;52.588;13.406;2022-07-18T04:12:27;14.30;99.90
25963;DHT22;13760;52.588;13.406;2022-07-18T04:14:58;14.30;99.90
25963;DHT22;13760;52.588;13.406;2022-07-18T04:17:24;14.30;99.90
25963;DHT22;13760;52.588;13.406;2022-07-18T04:19:50;14.40;99.90
25963;DHT22;13760;52.588;13.406;2022-07-18T04:22:16;14.40;99.90
25963;DHT22;13760;52.588;13.406;2022-07-18T04:24:42;14.40;99.90
25963;DHT22;13760;52.588;13.406;2022-07-18T04:27:08;14.40;99.90
25963;DHT22;13760;52.588;13.406;2022-07-18T04:29:37;14.50;99.90
25963;DHT22;13760;52.588;13.406;2022-07-18T04:32:04;14.50;99.90
25963;DHT22;13760;52.588;13.406;2022-07-18T04:34:29;14.50;99.90
25963;DHT22;13760;52.588;13.406;2022-07-18T04:36:55;14.60;99.90
25963;DHT22;13760;52.588;13.406;2022-07-18T04:39:24;14.70;99.90
25963;DHT22;13760;52.588;13.406;2022-07-18T04:41:50;14.70;99.90
25963;DHT22;13760;52.588;13.406;2022-07-18T04:44:19;14.80;99.90
25963;DHT22;13760;52.588;13.406;2022-07-18T04:46:47;14.80;99.90
25963;DHT22;13760;52.588;13.406;2022-07-18T04:49:13;14.90;99.90
25963;DHT22;13760;52.588;13.406;2022-07-18T04:51:38;15.00;99.90
25963;DHT22;13760;52.588;13.406;2022-07-18T04:54:06;15.00;99.90
25963;DHT22;13760;52.588;13.406;2022-07-18T04:56:33;15.10;99.90
25963;DHT22;13760;52.588;13.406;2022-07-18T04:59:02;15.20;99.90
25963;DHT22;13760;52.588;13.406;2022-07-18T05:01:35;15.20;99.90
25963;DHT22;13760;52.588;13.406;2022-07-18T05:04:04;15.30;99.90
25963;DHT22;13760;52.588;13.406;2022-07-18T05:06:32;15.40;99.90
25963;DHT22;13760;52.588;13.406;2022-07-18T05:09:01;15.50;99.90
25963;DHT22;13760;52.588;13.406;2022-07-18T05:11:30;15.60;99.90
25963;DHT22;13760;52.588;13.406;2022-07-18T05:14:23;15.60;99.90
25963;DHT22;13760;52.588;13.406;2022-07-18T05:16:49;15.70;99.90
25963;DHT22;13760;52.588;13.406;2022-07-18T05:19:14;15.80;99.90
25963;DHT22;13760;52.588;13.406;2022-07-18T05:21:42;15.90;99.90
25963;DHT22;13760;52.588;13.406;2022-07-18T05:24:15;16.00;99.90
25963;DHT22;13760;52.588;13.406;2022-07-18T05:26:41;16.10;99.90
25963;DHT22;13760;52.588;13.406;2022-07-18T05:29:10;16.20;99.90
25963;DHT22;13760;52.588;13.406;2022-07-18T05:31:39;16.30;99.90
25963;DHT22;13760;52.588;13.406;2022-07-18T05:34:15;16.40;99.90
25963;DHT22;13760;52.588;13.406;2022-07-18T05:36:43;16.40;99.90
25963;DHT22;13760;52.588;13.406;2022-07-18T05:39:11;16.50;99.90
25963;DHT22;13760;52.588;13.406;2022-07-18T05:41:39;16.60;99.90
25963;DHT22;13760;52.588;13.406;2022-07-18T05:44:05;16.70;99.90
25963;DHT22;13760;52.588;13.406;2022-07-18T05:46:35;16.80;99.90
25963;DHT22;13760;52.588;13.406;2022-07-18T05:49:13;16.90;99.90
25963;DHT22;13760;52.588;13.406;2022-07-18T05:51:41;17.00;99.90
25963;DHT22;13760;52.588;13.406;2022-07-18T05:54:36;17.10;99.90
25963;DHT22;13760;52.588;13.406;2022-07-18T05:57:05;17.20;99.90
25963;DHT22;13760;52.588;13.406;2022-07-18T06:00:10;17.30;99.90
25963;DHT22;13760;52.588;13.406;2022-07-18T06:02:52;17.50;99.90
25963;DHT22;13760;52.588;13.406;2022-07-18T06:05:31;17.60;99.90
25963;DHT22;13760;52.588;13.406;2022-07-18T06:08:06;17.70;99.90
25963;DHT22;13760;52.588;13.406;2022-07-18T06:10:49;17.90;99.90
25963;DHT22;13760;52.588;13.406;2022-07-18T06:13:31;18.00;99.90
25963;DHT22;13760;52.588;13.406;2022-07-18T06:16:41;18.10;99.90
25963;DHT22;13760;52.588;13.406;2022-07-18T06:23:16;18.40;99.90
25963;DHT22;13760;52.588;13.406;2022-07-18T06:29:44;18.70;99.90
25963;DHT22;13760;52.588;13.406;2022-07-18T06:32:45;18.90;99.90
25963;DHT22;13760;52.588;13.406;2022-07-18T06:35:36;19.10;99.90
25963;DHT22;13760;52.588;13.406;2022-07-18T06:38:43;19.20;99.90
25963;DHT22;13760;52.588;13.406;2022-07-18T06:41:40;19.30;99.90
25963;DHT22;13760;52.588;13.406;2022-07-18T06:48:20;19.70;99.90
25963;DHT22;13760;52.588;13.406;2022-07-18T06:51:11;19.90;99.90
25963;DHT22;13760;52.588;13.406;2022-07-18T06:53:48;20.00;99.90
25963;DHT22;13760;52.588;13.406;2022-07-18T06:56:34;20.10;99.90
25963;DHT22;13760;52.588;13.406;2022-07-18T06:59:04;20.30;99.90
25963;DHT22;13760;52.588;13.406;2022-07-18T07:01:42;20.50;99.90
25963;DHT22;13760;52.588;13.406;2022-07-18T07:04:24;20.60;99.90
25963;DHT22;13760;52.588;13.406;2022-07-18T07:07:01;20.90;99.90
25963;DHT22;13760;52.588;13.406;2022-07-18T07:09:33;21.20;99.90
25963;DHT22;13760;52.588;13.406;2022-07-18T07:15:40;21.60;99.90
25963;DHT22;13760;52.588;13.406;2022-07-18T07:21:34;22.20;99.90
25963;DHT22;13760;52.588;13.406;2022-07-18T07:24:26;22.50;99.90
25963;DHT22;13760;52.588;13.406;2022-07-18T07:27:06;22.70;99.80
25963;DHT22;13760;52.588;13.406;2022-07-18T07:30:09;22.90;99.10
25963;DHT22;13760;52.588;13.406;2022-07-18T07:32:36;23.20;98.60
25963;DHT22;13760;52.588;13.406;2022-07-18T07:35:06;23.40;97.40
25963;DHT22;13760;52.588;13.406;2022-07-18T07:37:44;23.60;96.10
25963;DHT22;13760;52.588;13.406;2022-07-18T07:40:31;23.70;95.20
25963;DHT22;13760;52.588;13.406;2022-07-18T07:43:16;23.80;95.40
25963;DHT22;13760;52.588;13.406;2022-07-18T07:45:46;24.00;94.40
25963;DHT22;13760;52.588;13.406;2022-07-18T07:48:13;24.10;93.70
25963;DHT22;13760;52.588;13.406;2022-07-18T07:50:41;24.20;93.60
25963;DHT22;13760;52.588;13.406;2022-07-18T07:53:10;24.30;91.80
25963;DHT22;13760;52.588;13.406;2022-07-18T07:55:41;24.50;92.20
25963;DHT22;13760;52.588;13.406;2022-07-18T07:58:15;24.70;91.50
25963;DHT22;13760;52.588;13.406;2022-07-18T08:00:46;24.80;90.90
25963;DHT22;13760;52.588;13.406;2022-07-18T08:03:32;24.80;90.50
25963;DHT22;13760;52.588;13.406;2022-07-18T08:06:01;24.90;89.60
25963;DHT22;13760;52.588;13.406;2022-07-18T08:08:36;25.00;89.70
25963;DHT22;13760;52.588;13.406;2022-07-18T08:11:08;25.00;87.60
25963;DHT22;13760;52.588;13.406;2022-07-18T08:13:42;25.10;87.40
25963;DHT22;13760;52.588;13.406;2022-07-18T08:16:21;25.30;88.30
25963;DHT22;13760;52.588;13.406;2022-07-18T08:18:49;25.40;85.10
25963;DHT22;13760;52.588;13.406;2022-07-18T08:21:15;25.60;86.40
25963;DHT22;13760;52.588;13.406;2022-07-18T08:23:46;25.60;84.50
25963;DHT22;13760;52.588;13.406;2022-07-18T08:26:16;25.70;83.40
25963;DHT22;13760;52.588;13.406;2022-07-18T08:28:42;25.60;82.60
25963;DHT22;13760;52.588;13.406;2022-07-18T08:31:15;25.60;83.10
25963;DHT22;13760;52.588;13.406;2022-07-18T08:33:42;25.70;82.70
25963;DHT22;13760;52.588;13.406;2022-07-18T08:36:17;25.50;81.50
25963;DHT22;13760;52.588;13.406;2022-07-18T08:38:46;25.40;80.80
25963;DHT22;13760;52.588;13.406;2022-07-18T08:41:25;25.40;80.90
25963;DHT22;13760;52.588;13.406;2022-07-18T08:43:53;25.40;81.20
25963;DHT22;13760;52.588;13.406;2022-07-18T08:46:21;25.40;80.80
25963;DHT22;13760;52.588;13.406;2022-07-18T08:49:06;25.30;80.00
25963;DHT22;13760;52.588;13.406;2022-07-18T08:51:34;25.40;79.90
25963;DHT22;13760;52.588;13.406;2022-07-18T08:54:31;25.60;80.20
25963;DHT22;13760;52.588;13.406;2022-07-18T08:57:11;25.70;80.10
25963;DHT22;13760;52.588;13.406;2022-07-18T08:59:43;25.80;79.20
25963;DHT22;13760;52.588;13.406;2022-07-18T09:02:27;26.00;78.50
25963;DHT22;13760;52.588;13.406;2022-07-18T09:08:26;26.30;78.60
25963;DHT22;13760;52.588;13.406;2022-07-18T09:11:00;26.30;77.40
25963;DHT22;13760;52.588;13.406;2022-07-18T09:16:12;26.30;75.50
25963;DHT22;13760;52.588;13.406;2022-07-18T09:23:56;26.40;76.80
25963;DHT22;13760;52.588;13.406;2022-07-18T09:30:37;26.70;73.80
25963;DHT22;13760;52.588;13.406;2022-07-18T09:33:17;26.70;74.50
25963;DHT22;13760;52.588;13.406;2022-07-18T09:36:15;26.80;74.10
25963;DHT22;13760;52.588;13.406;2022-07-18T09:38:46;27.00;73.40
25963;DHT22;13760;52.588;13.406;2022-07-18T09:41:13;27.00;71.20
25963;DHT22;13760;52.588;13.406;2022-07-18T09:43:39;26.80;70.70
25963;DHT22;13760;52.588;13.406;2022-07-18T09:46:08;26.90;71.60
25963;DHT22;13760;52.588;13.406;2022-07-18T09:48:34;26.80;71.20
25963;DHT22;13760;52.588;13.406;2022-07-18T09:51:01;26.70;70.60
25963;DHT22;13760;52.588;13.406;2022-07-18T09:56:03;26.80;71.60
25963;DHT22;13760;52.588;13.406;2022-07-18T09:58:36;26.80;71.70
25963;DHT22;13760;52.588;13.406;2022-07-18T10:01:04;26.80;71.70
25963;DHT22;13760;52.588;13.406;2022-07-18T10:03:31;27.00;71.50
25963;DHT22;13760;52.588;13.406;2022-07-18T10:05:58;27.10;70.50
25963;DHT22;13760;52.588;13.406;2022-07-18T10:08:26;27.20;71.00
25963;DHT22;13760;52.588;13.406;2022-07-18T10:10:57;27.30;69.80
25963;DHT22;13760;52.588;13.406;2022-07-18T10:13:26;27.30;70.00
25963;DHT22;13760;52.588;13.406;2022-07-18T10:15:58;27.40;68.70
25963;DHT22;13760;52.588;13.406;2022-07-18T10:18:26;27.40;69.70
25963;DHT22;13760;52.588;13.406;2022-07-18T10:26:17;27.40;67.90
25963;DHT22;13760;52.588;13.406;2022-07-18T10:31:32;27.50;68.50
25963;DHT22;13760;52.588;13.406;2022-07-18T10:36:34;27.30;69.30
25963;DHT22;13760;52.588;13.406;2022-07-18T10:39:11;27.40;68.70
25963;DHT22;13760;52.588;13.406;2022-07-18T10:57:37;27.10;67.90
25963;DHT22;13760;52.588;13.406;2022-07-18T11:02:45;27.00;67.50
25963;DHT22;13760;52.588;13.406;2022-07-18T11:21:21;27.40;65.10
25963;DHT22;13760;52.588;13.406;2022-07-18T11:23:52;27.60;65.70
25963;DHT22;13760;52.588;13.406;2022-07-18T11:27:13;27.70;65.50
25963;DHT22;13760;52.588;13.406;2022-07-18T11:29:59;27.80;65.20
25963;DHT22;13760;52.588;13.406;2022-07-18T11:32:25;28.00;65.60
25963;DHT22;13760;52.588;13.406;2022-07-18T11:34:50;28.00;64.60
25963;DHT22;13760;52.588;13.406;2022-07-18T11:37:17;28.00;64.30
25963;DHT22;13760;52.588;13.406;2022-07-18T11:39:42;28.00;63.30
25963;DHT22;13760;52.588;13.406;2022-07-18T11:42:09;28.10;64.80
25963;DHT22;13760;52.588;13.406;2022-07-18T11:44:36;28.10;63.90
25963;DHT22;13760;52.588;13.406;2022-07-18T11:47:09;28.20;63.60
25963;DHT22;13760;52.588;13.406;2022-07-18T11:49:36;28.40;63.20
25963;DHT22;13760;52.588;13.406;2022-07-18T11:52:04;28.50;62.20
25963;DHT22;13760;52.588;13.406;2022-07-18T11:54:30;28.60;63.30
25963;DHT22;13760;52.588;13.406;2022-07-18T11:56:58;28.80;63.20
25963;DHT22;13760;52.588;13.406;2022-07-18T11:59:41;28.80;61.70
25963;DHT22;13760;52.588;13.406;2022-07-18T12:02:09;28.90;61.00
25963;DHT22;13760;52.588;13.406;2022-07-18T12:04:36;29.00;61.50
25963;DHT22;13760;52.588;13.406;2022-07-18T12:07:13;29.20;62.60
25963;DHT22;13760;52.588;13.406;2022-07-18T12:09:40;29.30;60.60
25963;DHT22;13760;52.588;13.406;2022-07-18T12:12:10;29.40;60.20
25963;DHT22;13760;52.588;13.406;2022-07-18T12:14:36;29.50;60.20
25963;DHT22;13760;52.588;13.406;2022-07-18T12:17:04;29.50;59.30
25963;DHT22;13760;52.588;13.406;2022-07-18T12:19:37;29.40;59.10
25963;DHT22;13760;52.588;13.406;2022-07-18T12:22:07;29.30;59.10
25963;DHT22;13760;52.588;13.406;2022-07-18T12:32:29;29.00;59.00
25963;DHT22;13760;52.588;13.406;2022-07-18T12:35:00;28.90;58.80
25963;DHT22;13760;52.588;13.406;2022-07-18T12:37:28;28.80;59.40
25963;DHT22;13760;52.588;13.406;2022-07-18T12:40:00;28.80;59.50
25963;DHT22;13760;52.588;13.406;2022-07-18T12:42:35;28.70;60.30
25963;DHT22;13760;52.588;13.406;2022-07-18T12:45:03;28.70;60.20
25963;DHT22;13760;52.588;13.406;2022-07-18T12:47:41;28.60;59.90
25963;DHT22;13760;52.588;13.406;2022-07-18T12:50:08;28.60;59.50
25963;DHT22;13760;52.588;13.406;2022-07-18T12:52:34;28.60;59.50
25963;DHT22;13760;52.588;13.406;2022-07-18T12:55:00;28.50;59.70
25963;DHT22;13760;52.588;13.406;2022-07-18T12:57:26;28.60;59.10
25963;DHT22;13760;52.588;13.406;2022-07-18T12:59:52;28.50;58.90
25963;DHT22;13760;52.588;13.406;2022-07-18T13:02:18;28.50;57.90
25963;DHT22;13760;52.588;13.406;2022-07-18T13:04:47;28.50;58.50
25963;DHT22;13760;52.588;13.406;2022-07-18T13:07:38;28.30;57.10
25963;DHT22;13760;52.588;13.406;2022-07-18T13:10:38;28.20;58.60
25963;DHT22;13760;52.588;13.406;2022-07-18T13:13:28;28.20;58.30
25963;DHT22;13760;52.588;13.406;2022-07-18T13:15:59;28.20;58.10
25963;DHT22;13760;52.588;13.406;2022-07-18T13:18:25;28.30;59.30
25963;DHT22;13760;52.588;13.406;2022-07-18T13:20:51;28.30;58.40
25963;DHT22;13760;52.588;13.406;2022-07-18T13:23:17;28.30;58.70
25963;DHT22;13760;52.588;13.406;2022-07-18T13:25:48;28.30;58.60
25963;DHT22;13760;52.588;13.406;2022-07-18T13:28:22;28.30;58.70
25963;DHT22;13760;52.588;13.406;2022-07-18T13:30:55;28.30;58.50
25963;DHT22;13760;52.588;13.406;2022-07-18T13:33:21;28.30;58.40
25963;DHT22;13760;52.588;13.406;2022-07-18T13:35:56;28.30;58.70
25963;DHT22;13760;52.588;13.406;2022-07-18T13:38:29;28.40;58.50
25963;DHT22;13760;52.588;13.406;2022-07-18T13:41:01;28.40;58.00
25963;DHT22;13760;52.588;13.406;2022-07-18T13:43:32;28.40;58.80
25963;DHT22;13760;52.588;13.406;2022-07-18T13:45:58;28.50;58.40
25963;DHT22;13760;52.588;13.406;2022-07-18T13:48:30;28.50;57.80
25963;DHT22;13760;52.588;13.406;2022-07-18T13:51:14;28.60;57.70
25963;DHT22;13760;52.588;13.406;2022-07-18T13:53:44;28.70;58.80
25963;DHT22;13760;52.588;13.406;2022-07-18T13:56:13;28.80;57.40
25963;DHT22;13760;52.588;13.406;2022-07-18T13:58:48;29.00;57.50
25963;DHT22;13760;52.588;13.406;2022-07-18T14:01:22;29.10;57.30
25963;DHT22;13760;52.588;13.406;2022-07-18T14:03:49;29.20;57.00
25963;DHT22;13760;52.588;13.406;2022-07-18T14:06:21;29.30;57.50
25963;DHT22;13760;52.588;13.406;2022-07-18T14:08:54;29.30;57.00
25963;DHT22;13760;52.588;13.406;2022-07-18T14:11:25;29.30;56.50
25963;DHT22;13760;52.588;13.406;2022-07-18T14:13:58;29.40;55.70
25963;DHT22;13760;52.588;13.406;2022-07-18T14:16:33;29.60;56.20
25963;DHT22;13760;52.588;13.406;2022-07-18T14:19:31;29.80;55.80
25963;DHT22;13760;52.588;13.406;2022-07-18T14:22:05;30.10;55.40
25963;DHT22;13760;52.588;13.406;2022-07-18T14:24:39;30.20;53.90
25963;DHT22;13760;52.588;13.406;2022-07-18T14:27:10;30.30;54.50
25963;DHT22;13760;52.588;13.406;2022-07-18T14:29:38;30.40;54.10
25963;DHT22;13760;52.588;13.406;2022-07-18T14:32:04;30.30;54.00
25963;DHT22;13760;52.588;13.406;2022-07-18T14:34:30;30.30;53.50
25963;DHT22;13760;52.588;13.406;2022-07-18T14:36:58;30.10;54.40
25963;DHT22;13760;52.588;13.406;2022-07-18T14:39:24;29.90;54.10
25963;DHT22;13760;52.588;13.406;2022-07-18T14:41:50;29.80;55.60
25963;DHT22;13760;52.588;13.406;2022-07-18T14:44:32;29.70;54.70
25963;DHT22;13760;52.588;13.406;2022-07-18T14:47:42;29.50;54.10
25963;DHT22;13760;52.588;13.406;2022-07-18T14:54:22;29.40;55.60
25963;DHT22;13760;52.588;13.406;2022-07-18T14:57:14;29.40;55.10
25963;DHT22;13760;52.588;13.406;2022-07-18T14:59:48;29.30;55.30
25963;DHT22;13760;52.588;13.406;2022-07-18T15:02:17;29.40;55.30
25963;DHT22;13760;52.588;13.406;2022-07-18T15:04:43;29.40;54.60
25963;DHT22;13760;52.588;13.406;2022-07-18T15:07:09;29.30;54.40
25963;DHT22;13760;52.588;13.406;2022-07-18T15:09:34;29.30;54.40
25963;DHT22;13760;52.588;13.406;2022-07-18T15:12:03;29.30;55.00
25963;DHT22;13760;52.588;13.406;2022-07-18T15:14:35;29.20;54.70
25963;DHT22;13760;52.588;13.406;2022-07-18T15:17:01;29.10;54.60
25963;DHT22;13760;52.588;13.406;2022-07-18T15:19:30;29.00;55.10
25963;DHT22;13760;52.588;13.406;2022-07-18T15:22:11;28.90;55.50
25963;DHT22;13760;52.588;13.406;2022-07-18T15:24:37;28.80;56.30
25963;DHT22;13760;52.588;13.406;2022-07-18T15:27:29;28.70;55.20
25963;DHT22;13760;52.588;13.406;2022-07-18T15:30:18;28.70;55.20
25963;DHT22;13760;52.588;13.406;2022-07-18T15:33:04;28.60;55.60
25963;DHT22;13760;52.588;13.406;2022-07-18T15:36:01;28.50;56.00
25963;DHT22;13760;52.588;13.406;2022-07-18T15:38:35;28.50;56.60
25963;DHT22;13760;52.588;13.406;2022-07-18T15:41:13;28.50;56.60
25963;DHT22;13760;52.588;13.406;2022-07-18T15:43:49;28.50;56.10
25963;DHT22;13760;52.588;13.406;2022-07-18T15:46:20;28.60;55.70
25963;DHT22;13760;52.588;13.406;2022-07-18T15:48:57;28.60;55.70
25963;DHT22;13760;52.588;13.406;2022-07-18T15:55:01;28.60;55.20
25963;DHT22;13760;52.588;13.406;2022-07-18T16:05:03;28.50;56.50
25963;DHT22;13760;52.588;13.406;2022-07-18T16:07:32;28.50;55.30
25963;DHT22;13760;52.588;13.406;2022-07-18T16:10:00;28.60;55.80
25963;DHT22;13760;52.588;13.406;2022-07-18T16:12:29;28.60;55.70
25963;DHT22;13760;52.588;13.406;2022-07-18T16:14:58;28.60;55.50
25963;DHT22;13760;52.588;13.406;2022-07-18T16:17:23;28.50;56.00
25963;DHT22;13760;52.588;13.406;2022-07-18T16:20:10;28.50;55.80
25963;DHT22;13760;52.588;13.406;2022-07-18T16:23:12;28.40;55.60
25963;DHT22;13760;52.588;13.406;2022-07-18T16:25:42;28.40;55.70
25963;DHT22;13760;52.588;13.406;2022-07-18T16:28:09;28.30;56.00
25963;DHT22;13760;52.588;13.406;2022-07-18T16:31:20;28.30;56.00
25963;DHT22;13760;52.588;13.406;2022-07-18T16:41:35;28.20;57.10
25963;DHT22;13760;52.588;13.406;2022-07-18T16:44:09;28.20;57.10
25963;DHT22;13760;52.588;13.406;2022-07-18T16:46:41;28.20;56.30
25963;DHT22;13760;52.588;13.406;2022-07-18T16:49:12;28.20;56.70
25963;DHT22;13760;52.588;13.406;2022-07-18T16:51:59;28.20;57.30
25963;DHT22;13760;52.588;13.406;2022-07-18T16:54:42;28.20;57.10
25963;DHT22;13760;52.588;13.406;2022-07-18T16:57:19;28.10;57.60
25963;DHT22;13760;52.588;13.406;2022-07-18T16:59:49;28.10;57.20
25963;DHT22;13760;52.588;13.406;2022-07-18T17:02:48;28.10;56.40
25963;DHT22;13760;52.588;13.406;2022-07-18T17:19:06;28.00;58.10
25963;DHT22;13760;52.588;13.406;2022-07-18T17:21:34;27.90;57.90
25963;DHT22;13760;52.588;13.406;2022-07-18T17:24:07;27.90;57.70
25963;DHT22;13760;52.588;13.406;2022-07-18T17:26:46;27.90;57.60
25963;DHT22;13760;52.588;13.406;2022-07-18T17:29:25;27.90;57.40
25963;DHT22;13760;52.588;13.406;2022-07-18T17:32:00;27.90;58.10
25963;DHT22;13760;52.588;13.406;2022-07-18T17:34:31;27.80;58.60
25963;DHT22;13760;52.588;13.406;2022-07-18T17:37:02;27.80;57.70
25963;DHT22;13760;52.588;13.406;2022-07-18T17:46:16;27.70;57.50
25963;DHT22;13760;52.588;13.406;2022-07-18T17:48:57;27.60;58.00
25963;DHT22;13760;52.588;13.406;2022-07-18T17:51:55;27.50;58.50
25963;DHT22;13760;52.588;13.406;2022-07-18T17:54:46;27.40;59.20
25963;DHT22;13760;52.588;13.406;2022-07-18T17:57:15;27.40;59.30
25963;DHT22;13760;52.588;13.406;2022-07-18T17:59:41;27.30;59.50